createdAt,value
2022-09-30T00:01:35.444Z,2.43
2022-09-30T00:04:03.681Z,2.77
2022-09-30T00:06:33.047Z,2.83
2022-09-30T00:09:01.744Z,2.47
2022-09-30T00:11:32.780Z,2.60
2022-09-30T00:14:01.120Z,2.40
2022-09-30T00:16:34.207Z,2.63
2022-09-30T00:19:03.790Z,1.57
2022-09-30T00:21:34.149Z,3.03
2022-09-30T00:24:02.277Z,2.20
2022-09-30T00:26:30.639Z,1.77
2022-09-30T00:29:00.045Z,1.77
2022-09-30T00:31:32.785Z,2.00
2022-09-30T00:34:10.098Z,2.20
2022-09-30T00:36:41.728Z,2.43
2022-09-30T00:39:12.147Z,2.67
2022-09-30T00:41:39.960Z,1.90
2022-09-30T00:44:48.287Z,2.30
2022-09-30T00:47:38.349Z,2.03
2022-09-30T00:50:14.940Z,1.50
2022-09-30T00:52:43.802Z,2.97
2022-09-30T00:55:27.080Z,2.33
2022-09-30T00:57:56.169Z,2.40
2022-09-30T01:00:24.297Z,2.13
2022-09-30T01:02:54.548Z,2.00
2022-09-30T01:05:24.017Z,2.10
2022-09-30T01:07:52.583Z,1.67
2022-09-30T01:10:20.775Z,1.97
2022-09-30T01:12:48.714Z,1.43
2022-09-30T01:15:17.515Z,2.33
2022-09-30T01:17:55.187Z,2.47
2022-09-30T01:20:47.526Z,2.37
2022-09-30T01:23:39.575Z,2.13
2022-09-30T01:26:37.983Z,2.77
2022-09-30T01:29:43.306Z,3.47
2022-09-30T01:32:20.033Z,2.60
2022-09-30T01:34:56.944Z,3.00
2022-09-30T01:37:29.212Z,2.50
2022-09-30T01:40:07.358Z,2.90
2022-09-30T01:42:44.310Z,2.20
2022-09-30T01:45:17.393Z,3.17
2022-09-30T01:47:51.939Z,3.37
2022-09-30T01:50:24.728Z,3.03
2022-09-30T01:53:02.761Z,3.07
2022-09-30T01:55:35.609Z,3.70
2022-09-30T01:58:10.590Z,3.57
2022-09-30T02:00:42.643Z,3.37
2022-09-30T02:03:16.653Z,3.50
2022-09-30T02:05:51.076Z,3.53
2022-09-30T02:08:22.657Z,3.10
2022-09-30T02:10:56.326Z,2.57
2022-09-30T02:13:30.977Z,3.23
2022-09-30T02:16:12.695Z,2.90
2022-09-30T02:18:46.034Z,3.70
2022-09-30T02:21:18.396Z,3.17
2022-09-30T02:23:50.426Z,3.40
2022-09-30T02:26:23.021Z,3.43
2022-09-30T02:28:55.255Z,3.60
2022-09-30T02:31:25.931Z,3.00
2022-09-30T02:33:59.654Z,2.83
2022-09-30T02:36:33.010Z,3.10
2022-09-30T02:39:04.469Z,3.07
2022-09-30T02:41:38.511Z,2.90
2022-09-30T02:44:07.045Z,2.80
2022-09-30T02:46:44.572Z,2.47
2022-09-30T02:49:22.269Z,3.53
2022-09-30T02:52:07.290Z,3.80
2022-09-30T02:54:43.639Z,2.90
2022-09-30T02:57:20.202Z,3.20
2022-09-30T02:59:51.516Z,3.70
2022-09-30T03:02:20.408Z,5.00
2022-09-30T03:04:52.012Z,3.27
2022-09-30T03:07:19.901Z,5.20
2022-09-30T03:09:48.435Z,3.93
2022-09-30T03:12:33.767Z,4.00
2022-09-30T03:15:16.285Z,3.70
2022-09-30T03:17:59.349Z,3.57
2022-09-30T03:20:38.794Z,3.53
2022-09-30T03:23:27.579Z,4.07
2022-09-30T03:26:03.054Z,4.00
2022-09-30T03:28:36.669Z,3.00
2022-09-30T03:31:12.995Z,3.07
2022-09-30T03:33:50.193Z,3.63
2022-09-30T03:36:28.459Z,3.97
2022-09-30T03:39:05.975Z,3.87
2022-09-30T03:41:40.791Z,4.27
2022-09-30T03:44:13.138Z,3.60
2022-09-30T03:46:46.539Z,5.57
2022-09-30T03:49:20.137Z,5.30
2022-09-30T03:51:51.020Z,4.20
2022-09-30T03:54:19.396Z,4.17
2022-09-30T03:56:47.970Z,4.07
2022-09-30T03:59:24.006Z,3.90
2022-09-30T04:01:52.460Z,4.87
2022-09-30T04:04:20.389Z,3.83
2022-09-30T04:06:50.087Z,4.30
2022-09-30T04:09:17.832Z,3.20
2022-09-30T04:11:46.298Z,4.23
2022-09-30T04:14:14.127Z,3.70
2022-09-30T04:16:43.347Z,3.83
2022-09-30T04:19:11.141Z,4.40
2022-09-30T04:21:39.295Z,4.63
2022-09-30T04:24:09.074Z,5.17
2022-09-30T04:26:37.211Z,4.73
2022-09-30T04:29:05.104Z,4.57
2022-09-30T04:31:33.553Z,7.73
2022-09-30T04:34:01.414Z,8.83
2022-09-30T04:36:29.078Z,7.53
2022-09-30T04:38:56.765Z,6.33
2022-09-30T04:41:26.746Z,6.63
2022-09-30T04:43:55.137Z,5.30
2022-09-30T04:46:23.017Z,5.10
2022-09-30T04:48:51.191Z,4.97
2022-09-30T04:51:21.067Z,4.60
2022-09-30T04:53:50.387Z,4.93
2022-09-30T04:56:18.844Z,4.20
2022-09-30T04:58:47.848Z,3.57
2022-09-30T05:01:17.917Z,3.80
2022-09-30T05:03:45.856Z,2.90
2022-09-30T05:06:14.523Z,3.07
2022-09-30T05:08:45.971Z,4.23
2022-09-30T05:11:18.433Z,2.80
2022-09-30T05:13:46.560Z,3.50
2022-09-30T05:16:17.271Z,3.70
2022-09-30T05:18:47.014Z,3.40
2022-09-30T05:21:17.437Z,4.43
2022-09-30T05:23:45.506Z,3.57
2022-09-30T05:26:13.211Z,4.00
2022-09-30T05:28:40.985Z,3.47
2022-09-30T05:31:08.944Z,4.70
2022-09-30T05:33:38.114Z,3.73
2022-09-30T05:36:08.941Z,3.33
2022-09-30T05:38:37.073Z,3.87
2022-09-30T05:41:11.560Z,5.30
2022-09-30T05:43:40.632Z,6.47
2022-09-30T05:46:09.271Z,5.87
2022-09-30T05:48:38.286Z,4.67
2022-09-30T05:51:07.498Z,6.77
2022-09-30T05:53:38.565Z,7.43
2022-09-30T05:56:07.269Z,7.87
2022-09-30T05:58:35.531Z,6.90
2022-09-30T06:01:13.230Z,8.50
2022-09-30T06:03:43.626Z,8.47
2022-09-30T06:06:11.433Z,8.33
2022-09-30T06:08:39.115Z,8.47
2022-09-30T06:11:12.722Z,9.57
2022-09-30T06:13:41.476Z,10.07
2022-09-30T06:16:11.185Z,10.77
2022-09-30T06:18:41.088Z,10.70
2022-09-30T06:24:01.945Z,10.27
2022-09-30T06:26:30.086Z,11.80
2022-09-30T06:28:57.784Z,10.40
2022-09-30T06:31:25.516Z,10.40
2022-09-30T06:33:53.844Z,9.13
2022-09-30T06:36:23.326Z,9.53
2022-09-30T06:38:52.921Z,9.87
2022-09-30T06:41:21.594Z,8.00
2022-09-30T06:44:00.362Z,6.87
2022-09-30T06:46:31.166Z,7.80
2022-09-30T06:49:11.906Z,7.77
2022-09-30T06:51:43.072Z,7.93
2022-09-30T06:54:10.922Z,6.67
2022-09-30T06:56:39.528Z,7.73
2022-09-30T06:59:07.231Z,8.83
2022-09-30T07:01:34.973Z,7.80
2022-09-30T07:04:08.145Z,9.33
2022-09-30T07:06:36.386Z,9.40
2022-09-30T07:09:05.683Z,7.80
2022-09-30T07:11:33.365Z,8.63
2022-09-30T07:14:01.610Z,8.83
2022-09-30T07:16:31.493Z,9.60
2022-09-30T07:18:59.856Z,8.87
2022-09-30T07:21:27.928Z,8.30
2022-09-30T07:23:56.678Z,8.73
2022-09-30T07:26:27.203Z,7.83
2022-09-30T07:28:54.892Z,8.93
2022-09-30T07:31:32.908Z,8.20
2022-09-30T07:34:03.375Z,8.03
2022-09-30T07:36:33.594Z,8.87
2022-09-30T07:39:06.812Z,10.47
2022-09-30T07:41:39.264Z,9.60
2022-09-30T07:44:12.173Z,10.50
2022-09-30T07:46:40.445Z,9.57
2022-09-30T07:49:12.897Z,9.77
2022-09-30T07:51:44.109Z,10.33
2022-09-30T07:54:15.321Z,10.60
2022-09-30T07:57:08.715Z,12.87
2022-09-30T07:59:34.665Z,10.67
2022-09-30T08:02:02.892Z,13.53
2022-09-30T08:04:30.971Z,8.73
2022-09-30T08:07:00.932Z,9.90
2022-09-30T08:09:30.928Z,9.37
2022-09-30T08:12:00.542Z,8.53
2022-09-30T08:14:29.173Z,6.93
2022-09-30T08:16:58.686Z,9.13
2022-09-30T08:19:27.573Z,9.33
2022-09-30T08:21:55.908Z,7.53
2022-09-30T08:24:26.424Z,8.50
2022-09-30T08:26:55.367Z,7.43
2022-09-30T08:29:50.094Z,8.30
2022-09-30T08:32:12.786Z,7.23
2022-09-30T08:34:40.514Z,8.43
2022-09-30T08:37:10.621Z,9.73
2022-09-30T08:39:38.448Z,9.20
2022-09-30T08:42:41.430Z,9.90
2022-09-30T08:45:23.451Z,8.60
2022-09-30T08:48:02.167Z,8.00
2022-09-30T08:50:35.649Z,7.23
2022-09-30T08:53:10.217Z,10.57
2022-09-30T08:55:42.006Z,10.63
2022-09-30T08:58:20.518Z,10.27
2022-09-30T09:00:51.233Z,10.93
2022-09-30T09:03:20.817Z,10.90
2022-09-30T09:05:54.196Z,11.20
2022-09-30T09:08:30.435Z,13.10
2022-09-30T09:11:08.959Z,11.63
2022-09-30T09:13:48.331Z,9.73
2022-09-30T09:16:26.676Z,9.87
2022-09-30T09:19:04.730Z,11.17
2022-09-30T09:21:44.969Z,9.93
2022-09-30T09:24:17.199Z,7.77
2022-09-30T09:26:45.104Z,9.33
2022-09-30T09:29:27.061Z,9.50
2022-09-30T09:31:57.188Z,9.20
2022-09-30T09:34:27.039Z,9.87
2022-09-30T09:37:07.382Z,8.67
2022-09-30T09:40:07.707Z,10.73
2022-09-30T09:42:59.118Z,8.93
2022-09-30T09:45:33.407Z,9.77
2022-09-30T09:48:03.026Z,11.83
2022-09-30T09:50:41.932Z,12.13
2022-09-30T09:53:24.826Z,8.20
2022-09-30T09:55:57.089Z,7.67
2022-09-30T09:58:26.335Z,7.40
2022-09-30T10:01:13.800Z,8.10
2022-09-30T10:03:43.621Z,8.67
2022-09-30T10:06:12.821Z,7.10
2022-09-30T10:08:53.422Z,9.47
2022-09-30T10:11:23.931Z,7.40
2022-09-30T10:13:56.442Z,6.47
2022-09-30T10:16:29.234Z,8.13
2022-09-30T10:18:59.314Z,5.90
2022-09-30T10:21:28.868Z,7.10
2022-09-30T10:23:57.653Z,5.20
2022-09-30T10:29:04.013Z,4.63
2022-09-30T10:31:33.873Z,5.30
2022-09-30T10:34:12.695Z,6.90
2022-09-30T10:36:43.323Z,6.90
2022-09-30T10:39:23.533Z,5.37
2022-09-30T10:41:52.630Z,4.27
2022-09-30T10:44:24.589Z,4.87
2022-09-30T10:46:54.311Z,3.77
2022-09-30T10:49:29.659Z,3.40
2022-09-30T10:51:58.354Z,4.37
2022-09-30T10:54:43.957Z,3.90
2022-09-30T10:57:16.757Z,4.80
2022-09-30T10:59:46.385Z,3.37
2022-09-30T11:02:31.848Z,2.80
2022-09-30T11:05:13.439Z,3.00
2022-09-30T11:07:47.120Z,5.33
2022-09-30T11:10:28.716Z,4.40
2022-09-30T11:13:02.828Z,2.63
2022-09-30T11:15:37.341Z,2.97
2022-09-30T11:18:08.923Z,3.10
2022-09-30T11:20:44.859Z,3.17
2022-09-30T11:23:21.830Z,2.70
2022-09-30T11:26:01.307Z,2.20
2022-09-30T11:28:54.068Z,2.73
2022-09-30T11:31:31.496Z,2.60
2022-09-30T11:34:12.747Z,2.00
2022-09-30T11:36:50.780Z,3.10
2022-09-30T11:39:37.382Z,2.60
2022-09-30T11:42:13.954Z,3.90
2022-09-30T11:44:45.736Z,3.27
2022-09-30T11:47:45.995Z,3.20
2022-09-30T11:50:32.158Z,3.70
2022-09-30T11:53:14.200Z,3.27
2022-09-30T11:55:57.501Z,3.70
2022-09-30T11:58:41.116Z,3.27
2022-09-30T12:01:21.492Z,3.43
2022-09-30T12:03:58.042Z,3.57
2022-09-30T12:06:33.408Z,2.97
2022-09-30T12:09:10.444Z,3.43
2022-09-30T12:11:46.435Z,3.67
2022-09-30T12:14:20.890Z,3.83
2022-09-30T12:16:51.337Z,3.57
2022-09-30T12:19:25.924Z,3.00
2022-09-30T12:22:00.013Z,2.60
2022-09-30T12:24:35.745Z,2.73
2022-09-30T12:27:04.330Z,2.03
2022-09-30T12:29:56.015Z,3.47
2022-09-30T12:32:44.125Z,1.80
2022-09-30T12:35:37.159Z,1.73
2022-09-30T12:38:21.227Z,1.30
2022-09-30T12:41:08.523Z,1.50
2022-09-30T12:44:05.998Z,2.30
2022-09-30T12:46:50.641Z,2.10
2022-09-30T12:49:23.646Z,1.97
2022-09-30T12:51:55.583Z,1.20
2022-09-30T12:54:28.317Z,1.47
2022-09-30T12:57:00.556Z,1.60
2022-09-30T12:59:33.500Z,1.70
2022-09-30T13:02:03.683Z,1.63
2022-09-30T13:04:37.002Z,2.17
2022-09-30T13:07:23.295Z,1.70
2022-09-30T13:09:59.289Z,3.03
2022-09-30T13:12:41.424Z,2.27
2022-09-30T13:15:43.853Z,1.80
2022-09-30T13:18:47.915Z,1.80
2022-09-30T13:21:21.780Z,5.40
2022-09-30T13:23:50.735Z,3.80
2022-09-30T13:26:43.076Z,2.90
2022-09-30T13:29:39.207Z,2.40
2022-09-30T13:32:10.531Z,1.90
2022-09-30T13:34:58.113Z,1.53
2022-09-30T13:37:38.830Z,2.47
2022-09-30T13:40:16.799Z,1.70
2022-09-30T13:42:52.862Z,1.60
2022-09-30T13:45:31.173Z,1.60
2022-09-30T13:48:11.121Z,2.00
2022-09-30T13:50:46.504Z,1.27
2022-09-30T13:53:20.603Z,1.73
2022-09-30T13:55:53.644Z,1.30
2022-09-30T13:58:39.165Z,2.13
2022-09-30T14:01:21.276Z,1.50
2022-09-30T14:04:15.050Z,1.57
2022-09-30T14:06:53.338Z,1.93
2022-09-30T14:09:38.765Z,1.83
2022-09-30T14:12:16.350Z,1.27
2022-09-30T14:15:18.158Z,0.80
2022-09-30T14:18:22.339Z,1.10
2022-09-30T14:21:04.854Z,1.30
2022-09-30T14:23:32.625Z,0.93
2022-09-30T14:26:11.533Z,0.70
2022-09-30T14:28:46.787Z,0.80
2022-09-30T14:31:16.209Z,1.13
2022-09-30T14:33:52.014Z,0.60
2022-09-30T14:36:22.982Z,0.60
2022-09-30T14:38:54.516Z,0.73
2022-09-30T14:41:24.501Z,0.60
2022-09-30T14:43:55.353Z,0.70
2022-09-30T14:46:35.613Z,0.83
2022-09-30T14:49:09.544Z,0.50
2022-09-30T14:51:43.203Z,0.73
2022-09-30T14:54:19.466Z,0.77
2022-09-30T14:56:48.160Z,0.40
2022-09-30T14:59:19.592Z,1.03
2022-09-30T15:01:50.084Z,0.43
2022-09-30T15:04:23.961Z,1.73
2022-09-30T15:06:53.018Z,0.30
2022-09-30T15:09:28.766Z,0.73
2022-09-30T15:11:58.996Z,0.80
2022-09-30T15:14:27.066Z,0.50
2022-09-30T15:16:57.009Z,0.50
2022-09-30T15:19:28.104Z,0.70
2022-09-30T15:21:58.650Z,0.73
2022-09-30T15:24:32.124Z,0.63
2022-09-30T15:27:01.708Z,0.70
2022-09-30T15:29:29.488Z,0.33
2022-09-30T15:32:01.959Z,0.73
2022-09-30T15:34:32.519Z,1.13
2022-09-30T15:37:06.489Z,0.80
2022-09-30T15:39:54.029Z,0.50
2022-09-30T15:42:32.161Z,0.80
2022-09-30T15:44:59.890Z,0.70
2022-09-30T15:47:29.255Z,2.07
2022-09-30T15:49:58.313Z,0.93
2022-09-30T15:52:37.006Z,0.90
2022-09-30T15:55:36.501Z,0.83
2022-09-30T15:58:05.116Z,0.67
2022-09-30T16:00:36.405Z,1.50
2022-09-30T16:03:28.824Z,1.60
2022-09-30T16:06:08.380Z,1.43
2022-09-30T16:08:43.380Z,1.97
2022-09-30T16:11:20.464Z,2.00
2022-09-30T16:13:49.245Z,2.43
2022-09-30T16:16:22.161Z,2.37
2022-09-30T16:18:52.208Z,2.43
2022-09-30T16:21:43.799Z,2.77
2022-09-30T16:24:47.084Z,2.40
2022-09-30T16:27:25.975Z,1.70
2022-09-30T16:29:53.751Z,2.40
2022-09-30T16:32:21.607Z,4.10
2022-09-30T16:34:49.706Z,2.93
2022-09-30T16:37:21.440Z,2.00
2022-09-30T16:39:50.215Z,1.83
2022-09-30T16:42:19.314Z,1.90
2022-09-30T16:44:47.072Z,1.60
2022-09-30T16:47:16.676Z,2.23
2022-09-30T16:49:46.437Z,2.10
2022-09-30T16:52:14.951Z,1.57
2022-09-30T16:54:44.212Z,1.63
2022-09-30T16:57:14.650Z,1.60
2022-09-30T16:59:43.467Z,1.57
2022-09-30T17:02:15.713Z,2.30
2022-09-30T17:04:45.363Z,1.97
2022-09-30T17:07:14.908Z,1.50
2022-09-30T17:09:45.345Z,0.93
2022-09-30T17:12:13.217Z,1.50
2022-09-30T17:14:43.678Z,2.03
2022-09-30T17:17:13.751Z,2.17
2022-09-30T17:19:42.018Z,2.33
2022-09-30T17:22:09.698Z,2.10
2022-09-30T17:24:37.344Z,1.37
2022-09-30T17:27:07.753Z,1.80
2022-09-30T17:29:41.932Z,1.43
2022-09-30T17:32:10.408Z,1.10
2022-09-30T17:34:38.114Z,2.30
2022-09-30T17:39:39.234Z,1.60
2022-09-30T17:42:30.289Z,2.03
2022-09-30T17:44:58.445Z,2.07
2022-09-30T17:47:26.721Z,1.90
2022-09-30T17:49:55.058Z,2.00
2022-09-30T17:52:23.731Z,1.60
2022-09-30T17:54:52.702Z,1.30
2022-09-30T17:57:22.175Z,2.10
2022-09-30T17:59:50.142Z,1.97
2022-09-30T18:02:18.084Z,2.07
2022-09-30T18:04:46.515Z,1.43
2022-09-30T18:07:14.220Z,2.03
2022-09-30T18:09:42.325Z,1.17
2022-09-30T18:12:09.998Z,1.50
2022-09-30T18:14:39.813Z,1.87
2022-09-30T18:17:07.697Z,2.30
2022-09-30T18:19:38.322Z,1.50
2022-09-30T18:22:06.000Z,1.43
2022-09-30T18:24:48.349Z,1.73
2022-09-30T18:27:16.142Z,1.53
2022-09-30T18:29:45.519Z,2.17
2022-09-30T18:32:13.371Z,1.73
2022-09-30T18:34:41.877Z,2.00
2022-09-30T18:37:10.315Z,1.60
2022-09-30T18:39:38.409Z,1.10
2022-09-30T18:42:06.491Z,1.50
2022-09-30T18:44:37.799Z,1.30
2022-09-30T18:47:07.475Z,1.27
2022-09-30T18:49:35.448Z,0.60
2022-09-30T18:52:03.216Z,0.60
2022-09-30T18:54:31.088Z,0.60
2022-09-30T18:57:00.011Z,1.47
2022-09-30T18:59:27.738Z,0.70
2022-09-30T19:01:58.221Z,1.07
2022-09-30T19:04:27.746Z,1.10
2022-09-30T19:06:55.402Z,1.40
2022-09-30T19:09:26.361Z,1.20
2022-09-30T19:11:55.572Z,1.57
2022-09-30T19:14:24.292Z,1.70
2022-09-30T19:16:52.278Z,1.10
2022-09-30T19:19:22.775Z,1.90
2022-09-30T19:21:52.096Z,1.30
2022-09-30T19:24:24.049Z,1.30
2022-09-30T19:26:54.405Z,1.80
2022-09-30T19:29:23.833Z,1.33
2022-09-30T19:31:51.684Z,1.47
2022-09-30T19:34:31.002Z,1.67
2022-09-30T19:37:01.038Z,1.43
2022-09-30T19:39:41.009Z,1.60
2022-09-30T19:42:15.018Z,2.07
2022-09-30T19:44:42.917Z,2.23
2022-09-30T19:47:11.092Z,1.70
2022-09-30T19:49:38.854Z,1.70
2022-09-30T19:52:18.523Z,1.37
2022-09-30T19:54:48.347Z,2.00
2022-09-30T19:57:16.060Z,2.33
2022-09-30T19:59:44.026Z,1.70
2022-09-30T20:02:12.759Z,3.07
2022-09-30T20:04:44.039Z,3.33
2022-09-30T20:07:16.105Z,2.27
2022-09-30T20:09:43.820Z,0.90
2022-09-30T20:12:11.762Z,0.30
2022-09-30T20:14:57.549Z,0.30
2022-09-30T20:17:25.223Z,0.20
2022-09-30T20:20:07.095Z,0.30
2022-09-30T20:22:36.153Z,1.20
2022-09-30T20:25:04.460Z,0.80
2022-09-30T20:27:32.896Z,0.73
2022-09-30T20:30:00.739Z,2.90
2022-09-30T20:32:30.692Z,3.40
2022-09-30T20:34:59.041Z,3.70
2022-09-30T20:37:26.762Z,6.17
2022-09-30T20:39:55.830Z,3.80
2022-09-30T20:42:25.519Z,4.20
2022-09-30T20:44:53.173Z,3.20
2022-09-30T20:47:20.829Z,2.97
2022-09-30T20:49:48.495Z,5.13
2022-09-30T20:52:16.198Z,5.23
2022-09-30T20:54:43.843Z,4.30
2022-09-30T20:57:13.511Z,4.47
2022-09-30T20:59:41.146Z,4.03
2022-09-30T21:02:10.963Z,3.67
2022-09-30T21:04:38.755Z,3.97
2022-09-30T21:07:07.194Z,4.87
2022-09-30T21:09:35.643Z,5.77
2022-09-30T21:12:03.430Z,5.20
2022-09-30T21:14:32.423Z,6.27
2022-09-30T21:17:00.435Z,7.17
2022-09-30T21:19:28.541Z,5.80
2022-09-30T21:21:56.803Z,6.07
2022-09-30T21:24:25.833Z,6.03
2022-09-30T21:26:54.653Z,5.13
2022-09-30T21:29:23.718Z,6.17
2022-09-30T21:31:52.787Z,5.50
2022-09-30T21:34:20.477Z,5.50
2022-09-30T21:36:49.194Z,5.30
2022-09-30T21:39:16.851Z,8.23
2022-09-30T21:41:44.702Z,8.03
2022-09-30T21:44:12.378Z,6.47
2022-09-30T21:46:44.745Z,7.20
2022-09-30T21:49:18.986Z,6.00
2022-09-30T21:51:46.707Z,5.27
2022-09-30T21:54:14.773Z,5.13
2022-09-30T21:56:43.638Z,5.43
2022-09-30T21:59:11.972Z,5.67
2022-09-30T22:01:39.775Z,4.43
2022-09-30T22:04:08.167Z,4.90
2022-09-30T22:06:37.225Z,5.80
2022-09-30T22:09:05.216Z,4.13
2022-09-30T22:11:33.398Z,4.70
2022-09-30T22:14:01.653Z,4.03
2022-09-30T22:16:34.696Z,4.03
2022-09-30T22:19:04.721Z,3.67
2022-09-30T22:21:34.513Z,5.17
2022-09-30T22:24:06.233Z,4.00
2022-09-30T22:26:34.220Z,5.00
2022-09-30T22:29:05.321Z,5.23
2022-09-30T22:31:34.226Z,4.37
2022-09-30T22:34:21.314Z,4.73
2022-09-30T22:37:06.565Z,4.27
2022-09-30T22:39:36.033Z,4.67
2022-09-30T22:42:04.765Z,3.93
2022-09-30T22:44:34.577Z,3.93
2022-09-30T22:47:02.840Z,4.77
2022-09-30T22:49:32.019Z,3.87
2022-09-30T22:52:00.955Z,5.77
2022-09-30T22:54:29.237Z,5.17
2022-09-30T22:56:59.570Z,5.17
2022-09-30T22:59:28.366Z,5.03
2022-09-30T23:01:56.416Z,3.37
2022-09-30T23:04:26.684Z,5.53
2022-09-30T23:06:56.334Z,7.63
2022-09-30T23:09:24.133Z,7.40
2022-09-30T23:11:53.595Z,6.87
2022-09-30T23:14:23.020Z,5.90
2022-09-30T23:16:51.425Z,6.73
2022-09-30T23:19:20.109Z,6.87
2022-09-30T23:21:48.339Z,5.50
2022-09-30T23:24:16.712Z,6.83
2022-09-30T23:26:44.461Z,4.73
2022-09-30T23:29:14.438Z,4.53
2022-09-30T23:32:23.022Z,6.57
2022-09-30T23:34:52.346Z,5.97
2022-09-30T23:37:20.053Z,6.83
2022-09-30T23:39:48.319Z,6.63
2022-09-30T23:42:16.386Z,6.37
2022-09-30T23:44:44.318Z,6.37
2022-09-30T23:47:21.522Z,6.13
2022-09-30T23:49:50.419Z,8.33
2022-09-30T23:52:19.719Z,9.23
2022-09-30T23:54:47.814Z,6.47
2022-09-30T23:57:15.528Z,8.47
2022-09-30T23:59:43.198Z,7.63
